createdAt,value
2022-12-27T00:00:53.324Z,15.88
2022-12-27T00:03:20.660Z,7.22
2022-12-27T00:05:48.508Z,11.27
2022-12-27T00:08:15.955Z,9.48
2022-12-27T00:10:42.807Z,10.23
2022-12-27T00:13:09.598Z,11.95
2022-12-27T00:15:37.025Z,11.60
2022-12-27T00:18:03.913Z,10.10
2022-12-27T00:20:30.715Z,10.02
2022-12-27T00:23:01.273Z,13.95
2022-12-27T00:25:28.177Z,9.45
2022-12-27T00:27:55.414Z,11.48
2022-12-27T00:30:22.232Z,10.55
2022-12-27T00:32:49.022Z,8.73
2022-12-27T00:35:16.067Z,10.90
2022-12-27T00:37:42.829Z,11.90
2022-12-27T00:40:10.969Z,12.52
2022-12-27T00:42:37.798Z,10.45
2022-12-27T00:45:05.943Z,15.05
2022-12-27T00:47:32.800Z,12.35
2022-12-27T00:49:59.591Z,11.32
2022-12-27T00:52:26.503Z,11.18
2022-12-27T00:54:53.304Z,11.05
2022-12-27T00:57:20.057Z,11.27
2022-12-27T00:59:47.917Z,7.43
2022-12-27T01:02:14.843Z,10.18
2022-12-27T01:04:41.842Z,13.82
2022-12-27T01:07:08.669Z,13.13
2022-12-27T01:09:35.564Z,14.02
2022-12-27T01:12:02.541Z,11.18
2022-12-27T01:14:29.348Z,15.90
2022-12-27T01:16:56.234Z,13.20
2022-12-27T01:19:23.012Z,10.82
2022-12-27T01:21:49.856Z,9.00
2022-12-27T01:24:16.956Z,13.90
2022-12-27T01:26:43.765Z,14.98
2022-12-27T01:29:13.133Z,16.30
2022-12-27T01:31:40.353Z,14.32
2022-12-27T01:34:07.236Z,15.38
2022-12-27T01:36:34.421Z,12.10
2022-12-27T01:39:01.536Z,14.80
2022-12-27T01:41:55.398Z,13.00
2022-12-27T01:44:40.960Z,9.40
2022-12-27T01:47:35.204Z,9.93
2022-12-27T01:50:39.656Z,10.35
2022-12-27T01:53:21.144Z,17.55
2022-12-27T01:56:19.655Z,9.95
2022-12-27T01:59:01.495Z,11.65
2022-12-27T02:01:36.452Z,7.80
2022-12-27T02:04:15.302Z,15.52
2022-12-27T02:06:42.948Z,7.60
2022-12-27T02:09:14.799Z,14.63
2022-12-27T02:11:53.079Z,8.68
2022-12-27T02:14:35.811Z,18.27
2022-12-27T02:17:08.862Z,11.40
2022-12-27T02:19:41.681Z,17.83
2022-12-27T02:22:53.230Z,9.60
2022-12-27T02:25:35.092Z,12.32
2022-12-27T02:28:29.781Z,10.32
2022-12-27T02:31:07.352Z,9.23
2022-12-27T02:33:44.015Z,14.10
2022-12-27T02:36:18.289Z,13.48
2022-12-27T02:38:51.646Z,12.40
2022-12-27T02:41:38.390Z,14.48
2022-12-27T02:44:23.717Z,10.15
2022-12-27T02:47:11.149Z,11.50
2022-12-27T02:50:02.546Z,12.50
2022-12-27T02:53:07.240Z,10.68
2022-12-27T02:56:09.011Z,13.55
2022-12-27T02:59:08.012Z,18.45
2022-12-27T03:02:37.687Z,14.30
2022-12-27T03:06:08.902Z,12.32
2022-12-27T03:08:49.933Z,15.40
2022-12-27T03:11:35.896Z,10.48
2022-12-27T03:14:46.844Z,12.63
2022-12-27T03:17:32.929Z,17.75
2022-12-27T03:20:26.164Z,10.07
2022-12-27T03:23:14.334Z,12.00
2022-12-27T03:25:43.856Z,10.82
2022-12-27T03:28:37.645Z,14.20
2022-12-27T03:31:31.387Z,13.90
2022-12-27T03:34:24.793Z,14.43
2022-12-27T03:37:12.953Z,8.57
2022-12-27T03:39:50.532Z,6.28
2022-12-27T03:42:43.743Z,14.85
2022-12-27T03:45:11.354Z,14.43
2022-12-27T03:47:49.439Z,15.60
2022-12-27T03:50:45.157Z,19.13
2022-12-27T03:53:21.301Z,10.15
2022-12-27T03:55:48.943Z,7.75
2022-12-27T03:58:16.345Z,6.47
2022-12-27T04:00:43.163Z,10.98
2022-12-27T04:03:09.978Z,12.73
2022-12-27T04:05:36.758Z,17.15
2022-12-27T04:08:22.091Z,14.50
2022-12-27T04:11:07.675Z,12.13
2022-12-27T04:13:53.226Z,9.00
2022-12-27T04:16:39.056Z,11.02
2022-12-27T04:19:24.550Z,11.57
2022-12-27T04:22:09.661Z,12.05
2022-12-27T04:27:40.736Z,13.18
2022-12-27T04:30:27.342Z,16.02
2022-12-27T04:33:12.606Z,13.38
2022-12-27T04:35:39.459Z,22.08
2022-12-27T04:38:06.282Z,15.20
2022-12-27T04:40:51.531Z,16.50
2022-12-27T04:43:37.019Z,12.90
2022-12-27T04:46:22.603Z,13.32
2022-12-27T04:49:07.837Z,11.10
2022-12-27T04:51:53.235Z,14.25
2022-12-27T04:54:40.767Z,15.95
2022-12-27T04:57:07.746Z,11.88
2022-12-27T04:59:53.012Z,14.95
2022-12-27T05:02:20.362Z,10.65
2022-12-27T05:04:48.856Z,18.27
2022-12-27T05:07:34.752Z,15.63
2022-12-27T05:10:23.576Z,12.50
2022-12-27T05:13:08.882Z,15.88
2022-12-27T05:15:35.681Z,14.85
2022-12-27T05:18:02.777Z,13.57
2022-12-27T05:20:29.813Z,7.68
2022-12-27T05:23:15.124Z,16.92
2022-12-27T05:25:44.165Z,8.45
2022-12-27T05:28:12.899Z,12.82
2022-12-27T05:30:43.765Z,11.77
2022-12-27T05:33:11.156Z,15.05
2022-12-27T05:35:38.897Z,12.27
2022-12-27T05:38:06.354Z,7.57
2022-12-27T05:40:33.615Z,16.67
2022-12-27T05:43:02.317Z,13.75
2022-12-27T05:45:30.298Z,17.63
2022-12-27T05:47:58.949Z,18.17
2022-12-27T05:50:26.547Z,11.00
2022-12-27T05:52:53.344Z,12.82
2022-12-27T05:55:20.148Z,13.15
2022-12-27T05:57:46.936Z,17.80
2022-12-27T06:00:14.715Z,20.67
2022-12-27T06:02:42.847Z,16.25
2022-12-27T06:05:10.746Z,20.80
2022-12-27T06:07:39.454Z,12.82
2022-12-27T06:10:08.493Z,13.57
2022-12-27T06:12:35.876Z,21.42
2022-12-27T06:15:04.396Z,17.70
2022-12-27T06:17:31.219Z,11.43
2022-12-27T06:19:58.161Z,15.77
2022-12-27T06:22:25.741Z,18.27
2022-12-27T06:24:52.630Z,16.80
2022-12-27T06:27:19.409Z,13.65
2022-12-27T06:29:46.607Z,16.95
2022-12-27T06:32:13.641Z,12.55
2022-12-27T06:34:40.473Z,17.75
2022-12-27T06:37:07.281Z,13.43
2022-12-27T06:39:34.065Z,15.25
2022-12-27T06:42:00.992Z,14.20
2022-12-27T06:44:27.861Z,14.95
2022-12-27T06:46:54.654Z,14.10
2022-12-27T06:49:21.461Z,16.05
2022-12-27T06:51:52.564Z,19.85
2022-12-27T06:54:22.683Z,14.85
2022-12-27T06:56:49.545Z,13.90
2022-12-27T06:59:16.346Z,19.30
2022-12-27T07:01:43.373Z,16.67
2022-12-27T07:04:10.938Z,13.68
2022-12-27T07:06:38.376Z,13.95
2022-12-27T07:09:06.392Z,11.38
2022-12-27T07:11:35.448Z,16.70
2022-12-27T07:14:03.536Z,20.52
2022-12-27T07:16:31.178Z,18.15
2022-12-27T07:18:59.653Z,20.13
2022-12-27T07:21:29.610Z,20.00
2022-12-27T07:23:57.276Z,18.58
2022-12-27T07:26:28.717Z,17.88
2022-12-27T07:28:58.764Z,20.55
2022-12-27T07:31:29.791Z,18.88
2022-12-27T07:33:58.131Z,22.92
2022-12-27T07:36:28.960Z,22.55
2022-12-27T07:38:56.052Z,23.90
2022-12-27T07:41:23.315Z,26.63
2022-12-27T07:43:50.210Z,25.52
2022-12-27T07:46:20.705Z,29.23
2022-12-27T07:48:48.190Z,25.00
2022-12-27T07:51:17.902Z,25.67
2022-12-27T07:53:45.132Z,24.98
2022-12-27T07:56:26.092Z,26.88
2022-12-27T07:58:56.708Z,27.15
2022-12-27T08:01:26.463Z,30.38
2022-12-27T08:03:54.059Z,26.35
2022-12-27T08:06:32.091Z,29.80
2022-12-27T08:09:03.956Z,28.65
2022-12-27T08:11:31.404Z,32.92
2022-12-27T08:13:58.195Z,32.38
2022-12-27T08:16:26.548Z,29.30
2022-12-27T08:18:53.826Z,33.33
2022-12-27T08:21:20.769Z,34.13
2022-12-27T08:23:47.677Z,33.80
2022-12-27T08:26:14.568Z,36.00
2022-12-27T08:28:41.728Z,41.95
2022-12-27T08:31:11.314Z,28.65
2022-12-27T08:33:39.496Z,30.42
2022-12-27T08:36:44.702Z,31.33
2022-12-27T08:38:56.121Z,37.55
2022-12-27T08:41:23.662Z,27.77
2022-12-27T08:43:50.815Z,32.00
2022-12-27T08:46:19.879Z,36.45
2022-12-27T08:48:49.018Z,44.70
2022-12-27T08:51:23.440Z,33.25
2022-12-27T08:53:57.547Z,32.17
2022-12-27T08:56:25.088Z,31.60
2022-12-27T08:58:52.149Z,28.90
2022-12-27T09:01:19.136Z,32.45
2022-12-27T09:03:46.038Z,39.20
2022-12-27T09:06:20.508Z,31.35
2022-12-27T09:08:49.185Z,31.25
2022-12-27T09:11:21.621Z,31.05
2022-12-27T09:13:49.092Z,27.42
2022-12-27T09:16:24.358Z,27.23
2022-12-27T09:18:53.830Z,27.10
2022-12-27T09:21:23.597Z,25.10
2022-12-27T09:23:52.212Z,33.65
2022-12-27T09:26:26.571Z,22.23
2022-12-27T09:28:54.427Z,31.55
2022-12-27T09:31:22.900Z,30.77
2022-12-27T09:33:50.043Z,21.13
2022-12-27T09:36:20.730Z,19.00
2022-12-27T09:38:48.755Z,23.17
2022-12-27T09:42:45.853Z,17.50
2022-12-27T09:44:46.480Z,17.17
2022-12-27T09:47:22.543Z,18.23
2022-12-27T09:49:54.681Z,18.75
2022-12-27T09:52:35.586Z,14.45
2022-12-27T09:55:16.500Z,23.48
2022-12-27T09:57:45.666Z,19.02
2022-12-27T10:00:34.262Z,21.52
2022-12-27T10:03:06.217Z,21.30
2022-12-27T10:05:37.358Z,16.92
2022-12-27T10:08:55.061Z,22.23
2022-12-27T10:11:40.221Z,17.95
2022-12-27T10:14:13.131Z,20.65
2022-12-27T10:17:07.856Z,22.52
2022-12-27T10:19:46.435Z,18.87
2022-12-27T10:22:50.006Z,19.13
2022-12-27T10:25:22.136Z,20.45
2022-12-27T10:27:51.595Z,22.25
2022-12-27T10:30:21.107Z,22.83
2022-12-27T10:32:49.032Z,20.25
2022-12-27T10:35:19.415Z,17.40
2022-12-27T10:37:49.086Z,13.45
2022-12-27T10:40:27.674Z,17.23
2022-12-27T10:43:21.801Z,20.23
2022-12-27T10:45:49.212Z,19.33
2022-12-27T10:48:28.892Z,16.05
2022-12-27T10:51:07.254Z,19.23
2022-12-27T10:53:36.572Z,19.58
2022-12-27T10:56:28.035Z,23.95
2022-12-27T10:59:12.021Z,15.30
2022-12-27T11:01:39.469Z,16.45
2022-12-27T11:04:21.352Z,16.92
2022-12-27T11:07:08.218Z,19.23
2022-12-27T11:09:46.450Z,16.98
2022-12-27T11:12:24.381Z,16.58
2022-12-27T11:15:20.326Z,20.23
2022-12-27T11:17:51.041Z,17.75
2022-12-27T11:20:22.683Z,18.15
2022-12-27T11:22:57.113Z,13.90
2022-12-27T11:25:27.842Z,13.20
2022-12-27T11:28:14.485Z,18.08
2022-12-27T11:30:42.057Z,21.85
2022-12-27T11:33:37.608Z,12.73
2022-12-27T11:36:06.679Z,14.65
2022-12-27T11:38:37.152Z,16.48
2022-12-27T11:41:26.088Z,22.63
2022-12-27T11:44:00.809Z,16.15
2022-12-27T11:46:57.075Z,15.80
2022-12-27T11:49:36.771Z,17.23
2022-12-27T11:52:03.685Z,17.15
2022-12-27T11:55:12.762Z,16.52
2022-12-27T11:58:13.674Z,17.25
2022-12-27T12:01:28.780Z,20.70
2022-12-27T12:04:29.649Z,12.80
2022-12-27T12:07:21.259Z,16.80
2022-12-27T12:10:39.009Z,15.63
2022-12-27T12:13:17.674Z,18.20
2022-12-27T12:16:15.844Z,13.43
2022-12-27T12:19:01.471Z,18.40
2022-12-27T12:22:30.195Z,17.70
2022-12-27T12:26:06.701Z,12.77
2022-12-27T12:29:30.430Z,14.32
2022-12-27T12:32:51.876Z,14.48
2022-12-27T12:36:12.394Z,14.02
2022-12-27T12:38:52.972Z,17.23
2022-12-27T12:41:31.785Z,15.00
2022-12-27T12:44:37.970Z,14.15
2022-12-27T12:47:44.810Z,19.85
2022-12-27T12:50:57.962Z,12.63
2022-12-27T12:53:54.687Z,17.25
2022-12-27T12:56:50.111Z,18.23
2022-12-27T13:00:09.871Z,15.95
2022-12-27T13:03:18.224Z,17.58
2022-12-27T13:06:18.342Z,12.80
2022-12-27T13:08:57.790Z,20.05
2022-12-27T13:11:43.825Z,17.05
2022-12-27T13:15:06.996Z,20.45
2022-12-27T13:17:36.916Z,16.88
2022-12-27T13:20:22.276Z,14.88
2022-12-27T13:25:48.079Z,13.27
2022-12-27T13:29:07.161Z,13.68
2022-12-27T13:32:04.250Z,14.55
2022-12-27T13:35:07.443Z,16.65
2022-12-27T13:38:04.130Z,15.05
2022-12-27T13:41:14.627Z,9.07
2022-12-27T13:44:19.453Z,11.75
2022-12-27T13:47:16.400Z,12.68
2022-12-27T13:50:18.692Z,10.95
2022-12-27T13:53:33.285Z,11.75
2022-12-27T13:56:55.175Z,13.30
2022-12-27T14:00:02.941Z,10.00
2022-12-27T14:02:33.212Z,6.63
2022-12-27T14:05:05.858Z,8.05
2022-12-27T14:08:01.908Z,7.70
2022-12-27T14:10:40.926Z,9.82
2022-12-27T14:13:10.246Z,10.88
2022-12-27T14:15:43.036Z,6.10
2022-12-27T14:18:12.784Z,7.45
2022-12-27T14:20:56.923Z,6.68
2022-12-27T14:23:44.557Z,7.88
2022-12-27T14:26:36.180Z,8.00
2022-12-27T14:29:27.536Z,6.63
2022-12-27T14:32:34.508Z,10.82
2022-12-27T14:35:28.101Z,8.25
2022-12-27T14:38:45.864Z,7.30
2022-12-27T14:41:18.692Z,7.45
2022-12-27T14:44:45.285Z,6.72
2022-12-27T14:47:29.166Z,8.27
2022-12-27T14:50:19.717Z,12.10
2022-12-27T14:53:09.277Z,6.53
2022-12-27T14:56:12.824Z,7.90
2022-12-27T14:59:13.560Z,8.55
2022-12-27T15:02:02.034Z,6.82
2022-12-27T15:04:53.459Z,6.22
2022-12-27T15:07:34.328Z,9.60
2022-12-27T15:10:31.776Z,9.43
2022-12-27T15:13:32.434Z,5.50
2022-12-27T15:16:28.075Z,6.55
2022-12-27T15:22:15.870Z,9.30
2022-12-27T15:25:46.532Z,7.05
2022-12-27T15:28:58.013Z,9.07
2022-12-27T15:31:43.897Z,5.63
2022-12-27T15:34:43.493Z,7.97
2022-12-27T15:37:47.780Z,6.20
2022-12-27T15:40:32.866Z,6.75
2022-12-27T15:43:37.417Z,6.35
2022-12-27T15:46:28.659Z,7.68
2022-12-27T15:49:28.245Z,8.63
2022-12-27T15:54:58.710Z,6.80
2022-12-27T15:58:11.857Z,5.90
2022-12-27T16:00:39.612Z,5.63
2022-12-27T16:03:33.975Z,6.70
2022-12-27T16:06:02.095Z,8.55
2022-12-27T16:08:39.927Z,6.38
2022-12-27T16:11:11.054Z,5.05
2022-12-27T16:13:49.079Z,8.75
2022-12-27T16:16:28.766Z,6.55
2022-12-27T16:19:40.541Z,6.72
2022-12-27T16:22:38.344Z,4.13
2022-12-27T16:25:31.801Z,5.88
2022-12-27T16:28:16.705Z,9.23
2022-12-27T16:30:53.177Z,3.65
2022-12-27T16:33:26.444Z,8.95
2022-12-27T16:36:11.889Z,7.15
2022-12-27T16:39:11.534Z,6.53
2022-12-27T16:41:50.311Z,5.75
2022-12-27T16:44:36.246Z,7.30
2022-12-27T16:47:39.471Z,6.85
2022-12-27T16:50:29.259Z,4.75
2022-12-27T16:53:49.078Z,7.28
2022-12-27T16:56:24.337Z,5.97
2022-12-27T16:58:52.182Z,6.15
2022-12-27T17:01:18.995Z,7.47
2022-12-27T17:03:49.279Z,6.80
2022-12-27T17:06:33.144Z,5.57
2022-12-27T17:09:09.663Z,5.20
2022-12-27T17:11:51.590Z,4.85
2022-12-27T17:14:34.170Z,6.38
2022-12-27T17:17:09.364Z,5.90
2022-12-27T17:20:08.225Z,6.10
2022-12-27T17:22:39.632Z,6.28
2022-12-27T17:25:15.172Z,7.82
2022-12-27T17:28:00.228Z,4.32
2022-12-27T17:30:44.510Z,8.43
2022-12-27T17:33:53.718Z,5.88
2022-12-27T17:36:34.718Z,7.82
2022-12-27T17:39:38.950Z,4.90
2022-12-27T17:43:01.472Z,7.35
2022-12-27T17:46:13.377Z,6.68
2022-12-27T17:48:40.383Z,5.75
2022-12-27T17:51:15.252Z,5.95
2022-12-27T17:54:13.204Z,10.20
2022-12-27T17:57:14.689Z,7.63
2022-12-27T17:59:49.201Z,8.57
2022-12-27T18:02:36.731Z,5.15
2022-12-27T18:05:12.504Z,7.55
2022-12-27T18:07:39.979Z,11.68
2022-12-27T18:10:24.477Z,7.60
2022-12-27T18:13:05.202Z,9.07
2022-12-27T18:15:36.470Z,6.70
2022-12-27T18:18:07.673Z,7.18
2022-12-27T18:20:38.468Z,5.82
2022-12-27T18:23:06.276Z,10.57
2022-12-27T18:25:49.229Z,7.47
2022-12-27T18:28:33.900Z,35.95
2022-12-27T18:31:13.260Z,62.38
2022-12-27T18:33:40.075Z,46.42
2022-12-27T18:36:15.805Z,17.73
2022-12-27T18:38:47.073Z,5.38
2022-12-27T18:41:19.819Z,5.18
2022-12-27T18:43:50.392Z,4.63
2022-12-27T18:46:29.426Z,5.25
2022-12-27T18:48:57.050Z,5.85
2022-12-27T18:51:38.659Z,6.95
2022-12-27T18:54:30.010Z,8.73
2022-12-27T18:56:59.599Z,7.28
2022-12-27T18:59:29.291Z,5.95
2022-12-27T19:02:00.282Z,8.30
2022-12-27T19:04:33.051Z,6.75
2022-12-27T19:07:14.671Z,5.88
2022-12-27T19:09:59.986Z,7.90
2022-12-27T19:15:20.631Z,5.50
2022-12-27T19:17:50.825Z,8.02
2022-12-27T19:20:34.971Z,6.70
2022-12-27T19:23:39.416Z,4.55
2022-12-27T19:26:32.104Z,5.85
2022-12-27T19:29:06.816Z,8.18
2022-12-27T19:31:35.524Z,8.60
2022-12-27T19:34:09.551Z,5.45
2022-12-27T19:36:42.971Z,8.25
2022-12-27T19:39:22.108Z,6.78
2022-12-27T19:41:49.800Z,5.55
2022-12-27T19:44:17.109Z,7.60
2022-12-27T19:46:43.937Z,6.18
2022-12-27T19:51:58.855Z,7.75
2022-12-27T19:54:25.970Z,5.75
2022-12-27T19:56:53.291Z,9.88
2022-12-27T19:59:24.181Z,7.70
2022-12-27T20:01:52.807Z,3.55
2022-12-27T20:04:20.049Z,11.25
2022-12-27T20:06:48.923Z,6.43
2022-12-27T20:09:19.147Z,7.97
2022-12-27T20:11:48.272Z,5.55
2022-12-27T20:14:17.676Z,6.05
2022-12-27T20:16:46.959Z,9.50
2022-12-27T20:19:16.655Z,5.50
2022-12-27T20:21:43.961Z,9.07
2022-12-27T20:24:15.116Z,14.15
2022-12-27T20:26:43.214Z,20.98
2022-12-27T20:29:11.334Z,57.25
2022-12-27T20:31:44.741Z,20.40
2022-12-27T20:34:13.048Z,16.92
2022-12-27T20:36:41.657Z,8.27
2022-12-27T20:39:08.579Z,4.72
2022-12-27T20:41:35.587Z,6.80
2022-12-27T20:44:02.710Z,6.72
2022-12-27T20:46:29.663Z,6.78
2022-12-27T20:48:57.110Z,5.05
2022-12-27T20:51:33.664Z,4.57
2022-12-27T20:54:03.096Z,4.50
2022-12-27T20:56:30.479Z,4.65
2022-12-27T20:58:57.736Z,7.95
2022-12-27T21:01:28.177Z,9.18
2022-12-27T21:03:56.859Z,5.93
2022-12-27T21:06:27.479Z,4.90
2022-12-27T21:08:57.789Z,2.92
2022-12-27T21:11:31.660Z,4.15
2022-12-27T21:14:01.459Z,5.25
2022-12-27T21:16:32.309Z,4.93
2022-12-27T21:19:03.576Z,5.78
2022-12-27T21:21:33.181Z,5.65
2022-12-27T21:24:00.414Z,4.15
2022-12-27T21:26:33.782Z,7.22
2022-12-27T21:29:01.766Z,5.15
2022-12-27T21:31:30.190Z,5.65
2022-12-27T21:33:59.546Z,5.40
2022-12-27T21:36:31.676Z,4.05
2022-12-27T21:38:59.098Z,4.72
2022-12-27T21:41:33.309Z,3.00
2022-12-27T21:44:01.007Z,6.23
2022-12-27T21:46:31.978Z,5.38
2022-12-27T21:49:02.173Z,3.80
2022-12-27T21:51:31.677Z,4.50
2022-12-27T21:53:59.251Z,3.08
2022-12-27T21:56:26.634Z,3.53
2022-12-27T21:58:55.998Z,3.40
2022-12-27T22:01:26.289Z,3.90
2022-12-27T22:03:54.816Z,4.00
2022-12-27T22:06:37.816Z,5.72
2022-12-27T22:09:10.113Z,5.63
2022-12-27T22:11:39.576Z,2.85
2022-12-27T22:14:07.055Z,5.57
2022-12-27T22:16:39.389Z,4.32
2022-12-27T22:19:09.195Z,5.15
2022-12-27T22:21:37.896Z,3.85
2022-12-27T22:24:05.883Z,3.25
2022-12-27T22:26:37.472Z,4.03
2022-12-27T22:29:07.947Z,3.13
2022-12-27T22:31:38.245Z,2.72
2022-12-27T22:34:06.206Z,2.58
2022-12-27T22:36:34.385Z,3.00
2022-12-27T22:39:02.019Z,3.20
2022-12-27T22:41:35.676Z,5.00
2022-12-27T22:44:08.751Z,4.88
2022-12-27T22:47:24.624Z,5.13
2022-12-27T22:49:23.366Z,3.95
2022-12-27T22:51:50.140Z,5.15
2022-12-27T22:54:17.099Z,2.88
2022-12-27T22:56:44.205Z,3.05
2022-12-27T22:59:16.520Z,3.67
2022-12-27T23:01:46.053Z,4.05
2022-12-27T23:04:14.134Z,2.88
2022-12-27T23:06:42.169Z,2.58
2022-12-27T23:09:09.868Z,2.05
2022-12-27T23:11:41.011Z,2.15
2022-12-27T23:14:17.023Z,3.00
2022-12-27T23:16:47.459Z,1.63
2022-12-27T23:19:17.772Z,1.00
2022-12-27T23:21:45.015Z,1.70
2022-12-27T23:24:12.679Z,1.10
2022-12-27T23:26:40.682Z,1.35
2022-12-27T23:29:07.675Z,0.47
2022-12-27T23:31:34.819Z,1.23
2022-12-27T23:34:01.825Z,1.05
2022-12-27T23:36:31.522Z,0.98
2022-12-27T23:38:58.483Z,2.00
2022-12-27T23:41:26.502Z,5.05
2022-12-27T23:43:55.791Z,2.28
2022-12-27T23:46:33.324Z,0.85
2022-12-27T23:49:03.599Z,1.20
2022-12-27T23:51:31.787Z,1.70
2022-12-27T23:53:58.771Z,6.93
2022-12-27T23:56:32.331Z,4.82
2022-12-27T23:59:01.592Z,4.82
